sensor_id;sensor_type;location;lat;lon;timestamp;P1;durP1;ratioP1;P2;durP2;ratioP2
23470;SDS011;11908;50.806;4.424;2023-04-06T00:01:09;21.33;;;11.50;;
23470;SDS011;11908;50.806;4.424;2023-04-06T00:03:35;20.23;;;12.63;;
23470;SDS011;11908;50.806;4.424;2023-04-06T00:06:01;20.88;;;11.95;;
23470;SDS011;11908;50.806;4.424;2023-04-06T00:08:27;20.67;;;11.90;;
23470;SDS011;11908;50.806;4.424;2023-04-06T00:10:53;21.02;;;11.70;;
23470;SDS011;11908;50.806;4.424;2023-04-06T00:13:19;23.73;;;12.00;;
23470;SDS011;11908;50.806;4.424;2023-04-06T00:15:45;20.23;;;11.65;;
23470;SDS011;11908;50.806;4.424;2023-04-06T00:18:11;18.80;;;11.40;;
23470;SDS011;11908;50.806;4.424;2023-04-06T00:20:37;18.48;;;11.32;;
23470;SDS011;11908;50.806;4.424;2023-04-06T00:23:02;18.33;;;10.52;;
23470;SDS011;11908;50.806;4.424;2023-04-06T00:25:28;17.90;;;11.43;;
23470;SDS011;11908;50.806;4.424;2023-04-06T00:27:54;18.25;;;11.48;;
23470;SDS011;11908;50.806;4.424;2023-04-06T00:30:20;19.60;;;11.55;;
23470;SDS011;11908;50.806;4.424;2023-04-06T00:32:46;18.38;;;11.13;;
23470;SDS011;11908;50.806;4.424;2023-04-06T00:35:11;20.13;;;11.38;;
23470;SDS011;11908;50.806;4.424;2023-04-06T00:37:37;20.02;;;11.68;;
23470;SDS011;11908;50.806;4.424;2023-04-06T00:40:03;18.50;;;11.10;;
23470;SDS011;11908;50.806;4.424;2023-04-06T00:42:29;20.08;;;11.75;;
23470;SDS011;11908;50.806;4.424;2023-04-06T00:44:56;20.15;;;11.73;;
23470;SDS011;11908;50.806;4.424;2023-04-06T00:47:23;20.65;;;11.32;;
23470;SDS011;11908;50.806;4.424;2023-04-06T00:49:52;17.20;;;11.85;;
23470;SDS011;11908;50.806;4.424;2023-04-06T00:52:19;17.73;;;11.38;;
23470;SDS011;11908;50.806;4.424;2023-04-06T00:54:45;20.88;;;11.95;;
23470;SDS011;11908;50.806;4.424;2023-04-06T00:57:11;19.70;;;11.20;;
23470;SDS011;11908;50.806;4.424;2023-04-06T00:59:38;20.50;;;12.20;;
23470;SDS011;11908;50.806;4.424;2023-04-06T01:02:04;16.67;;;11.93;;
23470;SDS011;11908;50.806;4.424;2023-04-06T01:04:30;18.30;;;10.77;;
23470;SDS011;11908;50.806;4.424;2023-04-06T01:06:57;19.77;;;11.65;;
23470;SDS011;11908;50.806;4.424;2023-04-06T01:09:23;18.90;;;11.43;;
23470;SDS011;11908;50.806;4.424;2023-04-06T01:11:48;17.02;;;11.52;;
23470;SDS011;11908;50.806;4.424;2023-04-06T01:14:14;19.45;;;11.93;;
23470;SDS011;11908;50.806;4.424;2023-04-06T01:16:40;20.50;;;11.55;;
23470;SDS011;11908;50.806;4.424;2023-04-06T01:19:10;21.27;;;11.93;;
23470;SDS011;11908;50.806;4.424;2023-04-06T01:21:37;21.95;;;12.20;;
23470;SDS011;11908;50.806;4.424;2023-04-06T01:24:03;16.15;;;11.27;;
23470;SDS011;11908;50.806;4.424;2023-04-06T01:26:29;21.17;;;11.98;;
23470;SDS011;11908;50.806;4.424;2023-04-06T01:28:55;20.77;;;11.65;;
23470;SDS011;11908;50.806;4.424;2023-04-06T01:31:21;17.77;;;10.65;;
23470;SDS011;11908;50.806;4.424;2023-04-06T01:33:48;20.38;;;12.23;;
23470;SDS011;11908;50.806;4.424;2023-04-06T01:36:14;19.95;;;12.38;;
23470;SDS011;11908;50.806;4.424;2023-04-06T01:38:39;24.77;;;11.63;;
23470;SDS011;11908;50.806;4.424;2023-04-06T01:41:06;18.15;;;11.13;;
23470;SDS011;11908;50.806;4.424;2023-04-06T01:43:32;16.80;;;11.05;;
23470;SDS011;11908;50.806;4.424;2023-04-06T01:45:58;20.33;;;12.15;;
23470;SDS011;11908;50.806;4.424;2023-04-06T01:48:24;19.52;;;12.13;;
23470;SDS011;11908;50.806;4.424;2023-04-06T01:50:50;21.20;;;12.55;;
23470;SDS011;11908;50.806;4.424;2023-04-06T01:53:16;19.27;;;11.85;;
23470;SDS011;11908;50.806;4.424;2023-04-06T01:55:41;20.17;;;11.70;;
23470;SDS011;11908;50.806;4.424;2023-04-06T01:58:07;20.05;;;12.13;;
23470;SDS011;11908;50.806;4.424;2023-04-06T02:00:33;20.00;;;12.57;;
23470;SDS011;11908;50.806;4.424;2023-04-06T02:02:59;20.55;;;11.98;;
23470;SDS011;11908;50.806;4.424;2023-04-06T02:05:25;21.15;;;12.07;;
23470;SDS011;11908;50.806;4.424;2023-04-06T02:07:51;18.58;;;12.60;;
23470;SDS011;11908;50.806;4.424;2023-04-06T02:10:17;19.73;;;11.77;;
23470;SDS011;11908;50.806;4.424;2023-04-06T02:12:43;21.25;;;11.98;;
23470;SDS011;11908;50.806;4.424;2023-04-06T02:15:09;20.13;;;11.77;;
23470;SDS011;11908;50.806;4.424;2023-04-06T02:17:35;19.33;;;12.45;;
23470;SDS011;11908;50.806;4.424;2023-04-06T02:20:00;20.08;;;12.15;;
23470;SDS011;11908;50.806;4.424;2023-04-06T02:22:26;21.25;;;12.35;;
23470;SDS011;11908;50.806;4.424;2023-04-06T02:24:52;22.65;;;12.75;;
23470;SDS011;11908;50.806;4.424;2023-04-06T02:27:17;18.38;;;12.18;;
23470;SDS011;11908;50.806;4.424;2023-04-06T02:29:43;21.27;;;12.27;;
23470;SDS011;11908;50.806;4.424;2023-04-06T02:32:09;20.60;;;13.13;;
23470;SDS011;11908;50.806;4.424;2023-04-06T02:34:35;22.13;;;13.25;;
23470;SDS011;11908;50.806;4.424;2023-04-06T02:37:00;22.00;;;12.40;;
23470;SDS011;11908;50.806;4.424;2023-04-06T02:39:26;19.83;;;13.00;;
23470;SDS011;11908;50.806;4.424;2023-04-06T02:41:52;21.92;;;12.43;;
23470;SDS011;11908;50.806;4.424;2023-04-06T02:44:18;21.42;;;12.40;;
23470;SDS011;11908;50.806;4.424;2023-04-06T02:46:43;21.80;;;12.07;;
23470;SDS011;11908;50.806;4.424;2023-04-06T02:49:09;22.13;;;12.68;;
23470;SDS011;11908;50.806;4.424;2023-04-06T02:51:35;20.58;;;12.02;;
23470;SDS011;11908;50.806;4.424;2023-04-06T02:54:00;23.52;;;13.43;;
23470;SDS011;11908;50.806;4.424;2023-04-06T02:56:26;27.85;;;12.52;;
23470;SDS011;11908;50.806;4.424;2023-04-06T02:58:52;20.33;;;12.07;;
23470;SDS011;11908;50.806;4.424;2023-04-06T03:01:17;19.90;;;13.00;;
23470;SDS011;11908;50.806;4.424;2023-04-06T03:03:43;21.13;;;12.73;;
23470;SDS011;11908;50.806;4.424;2023-04-06T03:06:09;18.73;;;12.70;;
23470;SDS011;11908;50.806;4.424;2023-04-06T03:08:35;23.55;;;13.05;;
23470;SDS011;11908;50.806;4.424;2023-04-06T03:11:01;20.77;;;12.40;;
23470;SDS011;11908;50.806;4.424;2023-04-06T03:13:26;24.42;;;12.90;;
23470;SDS011;11908;50.806;4.424;2023-04-06T03:15:52;20.95;;;13.15;;
23470;SDS011;11908;50.806;4.424;2023-04-06T03:18:20;18.73;;;12.18;;
23470;SDS011;11908;50.806;4.424;2023-04-06T03:20:48;23.95;;;12.27;;
23470;SDS011;11908;50.806;4.424;2023-04-06T03:23:14;22.55;;;13.38;;
23470;SDS011;11908;50.806;4.424;2023-04-06T03:25:39;19.40;;;11.98;;
23470;SDS011;11908;50.806;4.424;2023-04-06T03:28:05;22.35;;;12.73;;
23470;SDS011;11908;50.806;4.424;2023-04-06T03:30:31;19.65;;;12.50;;
23470;SDS011;11908;50.806;4.424;2023-04-06T03:32:56;21.23;;;13.70;;
23470;SDS011;11908;50.806;4.424;2023-04-06T03:35:22;16.95;;;12.10;;
23470;SDS011;11908;50.806;4.424;2023-04-06T03:37:49;21.38;;;12.35;;
23470;SDS011;11908;50.806;4.424;2023-04-06T03:40:15;23.38;;;13.10;;
23470;SDS011;11908;50.806;4.424;2023-04-06T03:42:41;21.08;;;12.40;;
23470;SDS011;11908;50.806;4.424;2023-04-06T03:45:06;20.88;;;12.75;;
23470;SDS011;11908;50.806;4.424;2023-04-06T03:47:32;21.40;;;12.50;;
23470;SDS011;11908;50.806;4.424;2023-04-06T03:49:58;22.08;;;13.38;;
23470;SDS011;11908;50.806;4.424;2023-04-06T03:52:24;21.63;;;13.63;;
23470;SDS011;11908;50.806;4.424;2023-04-06T03:54:51;20.45;;;12.63;;
23470;SDS011;11908;50.806;4.424;2023-04-06T03:57:17;22.50;;;13.18;;
23470;SDS011;11908;50.806;4.424;2023-04-06T03:59:42;21.05;;;12.57;;
23470;SDS011;11908;50.806;4.424;2023-04-06T04:02:08;24.35;;;14.20;;
23470;SDS011;11908;50.806;4.424;2023-04-06T04:04:33;20.48;;;13.10;;
23470;SDS011;11908;50.806;4.424;2023-04-06T04:06:59;22.65;;;12.98;;
23470;SDS011;11908;50.806;4.424;2023-04-06T04:09:25;23.48;;;13.15;;
23470;SDS011;11908;50.806;4.424;2023-04-06T04:11:51;19.70;;;12.38;;
23470;SDS011;11908;50.806;4.424;2023-04-06T04:14:16;19.67;;;13.27;;
23470;SDS011;11908;50.806;4.424;2023-04-06T04:16:42;21.08;;;12.50;;
23470;SDS011;11908;50.806;4.424;2023-04-06T04:19:08;18.98;;;12.73;;
23470;SDS011;11908;50.806;4.424;2023-04-06T04:21:33;20.17;;;12.63;;
23470;SDS011;11908;50.806;4.424;2023-04-06T04:24:06;22.00;;;12.43;;
23470;SDS011;11908;50.806;4.424;2023-04-06T04:26:32;18.23;;;12.75;;
23470;SDS011;11908;50.806;4.424;2023-04-06T04:28:58;20.58;;;12.73;;
23470;SDS011;11908;50.806;4.424;2023-04-06T04:31:23;20.00;;;11.95;;
23470;SDS011;11908;50.806;4.424;2023-04-06T04:33:49;19.20;;;12.27;;
23470;SDS011;11908;50.806;4.424;2023-04-06T04:36:15;20.55;;;12.38;;
23470;SDS011;11908;50.806;4.424;2023-04-06T04:38:40;19.95;;;11.88;;
23470;SDS011;11908;50.806;4.424;2023-04-06T04:41:06;19.67;;;12.40;;
23470;SDS011;11908;50.806;4.424;2023-04-06T04:43:32;22.05;;;12.25;;
23470;SDS011;11908;50.806;4.424;2023-04-06T04:45:57;22.20;;;12.43;;
23470;SDS011;11908;50.806;4.424;2023-04-06T04:48:24;22.50;;;12.38;;
23470;SDS011;11908;50.806;4.424;2023-04-06T04:50:50;17.50;;;12.40;;
23470;SDS011;11908;50.806;4.424;2023-04-06T04:53:16;20.27;;;13.15;;
23470;SDS011;11908;50.806;4.424;2023-04-06T04:55:41;23.63;;;12.30;;
23470;SDS011;11908;50.806;4.424;2023-04-06T04:58:07;19.30;;;12.40;;
23470;SDS011;11908;50.806;4.424;2023-04-06T05:00:34;22.63;;;11.63;;
23470;SDS011;11908;50.806;4.424;2023-04-06T05:03:00;20.65;;;12.13;;
23470;SDS011;11908;50.806;4.424;2023-04-06T05:05:25;20.08;;;12.30;;
23470;SDS011;11908;50.806;4.424;2023-04-06T05:07:51;22.17;;;12.60;;
23470;SDS011;11908;50.806;4.424;2023-04-06T05:10:17;21.70;;;13.02;;
23470;SDS011;11908;50.806;4.424;2023-04-06T05:12:42;19.10;;;11.80;;
23470;SDS011;11908;50.806;4.424;2023-04-06T05:15:08;20.45;;;12.45;;
23470;SDS011;11908;50.806;4.424;2023-04-06T05:17:35;20.20;;;12.35;;
23470;SDS011;11908;50.806;4.424;2023-04-06T05:20:00;17.83;;;12.45;;
23470;SDS011;11908;50.806;4.424;2023-04-06T05:22:27;18.23;;;12.93;;
23470;SDS011;11908;50.806;4.424;2023-04-06T05:24:52;18.52;;;12.15;;
23470;SDS011;11908;50.806;4.424;2023-04-06T05:27:18;24.38;;;11.43;;
23470;SDS011;11908;50.806;4.424;2023-04-06T05:29:44;21.98;;;13.20;;
23470;SDS011;11908;50.806;4.424;2023-04-06T05:32:10;24.20;;;12.73;;
23470;SDS011;11908;50.806;4.424;2023-04-06T05:34:36;21.35;;;12.95;;
23470;SDS011;11908;50.806;4.424;2023-04-06T05:37:02;25.63;;;12.32;;
23470;SDS011;11908;50.806;4.424;2023-04-06T05:39:27;21.48;;;13.15;;
23470;SDS011;11908;50.806;4.424;2023-04-06T05:41:53;20.60;;;12.93;;
23470;SDS011;11908;50.806;4.424;2023-04-06T05:44:20;22.70;;;12.32;;
23470;SDS011;11908;50.806;4.424;2023-04-06T05:46:45;23.33;;;12.85;;
23470;SDS011;11908;50.806;4.424;2023-04-06T05:49:11;20.88;;;12.85;;
23470;SDS011;11908;50.806;4.424;2023-04-06T05:51:37;20.98;;;12.55;;
23470;SDS011;11908;50.806;4.424;2023-04-06T05:54:03;21.73;;;12.65;;
23470;SDS011;11908;50.806;4.424;2023-04-06T05:56:29;21.50;;;12.93;;
23470;SDS011;11908;50.806;4.424;2023-04-06T05:58:56;22.80;;;13.23;;
23470;SDS011;11908;50.806;4.424;2023-04-06T06:01:22;21.58;;;12.48;;
23470;SDS011;11908;50.806;4.424;2023-04-06T06:03:50;25.52;;;13.40;;
23470;SDS011;11908;50.806;4.424;2023-04-06T06:06:16;21.63;;;13.18;;
23470;SDS011;11908;50.806;4.424;2023-04-06T06:08:42;20.10;;;13.75;;
23470;SDS011;11908;50.806;4.424;2023-04-06T06:11:08;24.80;;;13.50;;
23470;SDS011;11908;50.806;4.424;2023-04-06T06:13:33;22.25;;;13.82;;
23470;SDS011;11908;50.806;4.424;2023-04-06T06:15:59;24.75;;;14.55;;
23470;SDS011;11908;50.806;4.424;2023-04-06T06:18:25;24.90;;;14.30;;
23470;SDS011;11908;50.806;4.424;2023-04-06T06:20:51;29.80;;;15.52;;
23470;SDS011;11908;50.806;4.424;2023-04-06T06:23:16;23.30;;;14.63;;
23470;SDS011;11908;50.806;4.424;2023-04-06T06:25:42;28.52;;;15.50;;
23470;SDS011;11908;50.806;4.424;2023-04-06T06:28:08;21.70;;;14.70;;
23470;SDS011;11908;50.806;4.424;2023-04-06T06:30:33;26.08;;;14.75;;
23470;SDS011;11908;50.806;4.424;2023-04-06T06:32:59;25.63;;;16.55;;
23470;SDS011;11908;50.806;4.424;2023-04-06T06:35:25;26.98;;;15.55;;
23470;SDS011;11908;50.806;4.424;2023-04-06T06:37:50;23.38;;;15.90;;
23470;SDS011;11908;50.806;4.424;2023-04-06T06:40:16;23.58;;;15.98;;
23470;SDS011;11908;50.806;4.424;2023-04-06T06:42:42;29.85;;;16.42;;
23470;SDS011;11908;50.806;4.424;2023-04-06T06:45:08;25.40;;;16.92;;
23470;SDS011;11908;50.806;4.424;2023-04-06T06:47:34;28.92;;;16.58;;
23470;SDS011;11908;50.806;4.424;2023-04-06T06:50:00;24.50;;;15.43;;
23470;SDS011;11908;50.806;4.424;2023-04-06T06:52:28;26.65;;;16.52;;
23470;SDS011;11908;50.806;4.424;2023-04-06T06:54:53;26.08;;;16.17;;
23470;SDS011;11908;50.806;4.424;2023-04-06T06:57:19;27.80;;;16.40;;
23470;SDS011;11908;50.806;4.424;2023-04-06T06:59:45;23.70;;;15.90;;
23470;SDS011;11908;50.806;4.424;2023-04-06T07:02:11;28.77;;;16.15;;
23470;SDS011;11908;50.806;4.424;2023-04-06T07:04:36;27.13;;;16.33;;
23470;SDS011;11908;50.806;4.424;2023-04-06T07:07:02;28.50;;;16.27;;
23470;SDS011;11908;50.806;4.424;2023-04-06T07:09:28;26.90;;;15.57;;
23470;SDS011;11908;50.806;4.424;2023-04-06T07:11:54;31.10;;;15.80;;
23470;SDS011;11908;50.806;4.424;2023-04-06T07:14:21;25.75;;;15.52;;
23470;SDS011;11908;50.806;4.424;2023-04-06T07:16:47;27.60;;;16.45;;
23470;SDS011;11908;50.806;4.424;2023-04-06T07:19:15;23.92;;;15.95;;
23470;SDS011;11908;50.806;4.424;2023-04-06T07:21:40;23.83;;;16.17;;
23470;SDS011;11908;50.806;4.424;2023-04-06T07:24:06;24.95;;;15.60;;
23470;SDS011;11908;50.806;4.424;2023-04-06T07:26:32;28.30;;;15.93;;
23470;SDS011;11908;50.806;4.424;2023-04-06T07:28:58;24.58;;;15.68;;
23470;SDS011;11908;50.806;4.424;2023-04-06T07:31:23;24.05;;;15.65;;
23470;SDS011;11908;50.806;4.424;2023-04-06T07:33:49;26.15;;;15.23;;
23470;SDS011;11908;50.806;4.424;2023-04-06T07:36:15;26.13;;;15.77;;
23470;SDS011;11908;50.806;4.424;2023-04-06T07:38:41;25.55;;;15.43;;
23470;SDS011;11908;50.806;4.424;2023-04-06T07:41:06;24.58;;;15.25;;
23470;SDS011;11908;50.806;4.424;2023-04-06T07:43:32;21.63;;;14.25;;
23470;SDS011;11908;50.806;4.424;2023-04-06T07:45:58;21.40;;;14.80;;
23470;SDS011;11908;50.806;4.424;2023-04-06T07:48:25;23.25;;;14.65;;
23470;SDS011;11908;50.806;4.424;2023-04-06T07:50:51;22.35;;;14.88;;
23470;SDS011;11908;50.806;4.424;2023-04-06T07:53:17;19.95;;;13.82;;
23470;SDS011;11908;50.806;4.424;2023-04-06T07:55:42;21.83;;;14.32;;
23470;SDS011;11908;50.806;4.424;2023-04-06T07:58:08;23.45;;;14.35;;
23470;SDS011;11908;50.806;4.424;2023-04-06T08:00:34;21.85;;;14.05;;
23470;SDS011;11908;50.806;4.424;2023-04-06T08:03:00;25.70;;;15.32;;
23470;SDS011;11908;50.806;4.424;2023-04-06T08:05:25;24.60;;;14.10;;
23470;SDS011;11908;50.806;4.424;2023-04-06T08:07:51;24.15;;;13.90;;
23470;SDS011;11908;50.806;4.424;2023-04-06T08:10:17;26.27;;;14.20;;
23470;SDS011;11908;50.806;4.424;2023-04-06T08:12:42;21.58;;;14.00;;
23470;SDS011;11908;50.806;4.424;2023-04-06T08:15:08;21.02;;;13.55;;
23470;SDS011;11908;50.806;4.424;2023-04-06T08:17:34;20.95;;;12.82;;
23470;SDS011;11908;50.806;4.424;2023-04-06T08:20:03;20.60;;;12.77;;
23470;SDS011;11908;50.806;4.424;2023-04-06T08:22:29;19.95;;;13.93;;
23470;SDS011;11908;50.806;4.424;2023-04-06T08:24:54;17.05;;;11.68;;
23470;SDS011;11908;50.806;4.424;2023-04-06T08:27:20;17.30;;;12.15;;
23470;SDS011;11908;50.806;4.424;2023-04-06T08:29:46;17.27;;;11.40;;
23470;SDS011;11908;50.806;4.424;2023-04-06T08:32:15;21.85;;;12.27;;
23470;SDS011;11908;50.806;4.424;2023-04-06T08:34:41;16.60;;;11.60;;
23470;SDS011;11908;50.806;4.424;2023-04-06T08:37:06;19.38;;;11.43;;
23470;SDS011;11908;50.806;4.424;2023-04-06T08:39:32;19.73;;;11.43;;
23470;SDS011;11908;50.806;4.424;2023-04-06T08:41:58;19.92;;;11.70;;
23470;SDS011;11908;50.806;4.424;2023-04-06T08:44:27;15.63;;;11.43;;
23470;SDS011;11908;50.806;4.424;2023-04-06T08:46:55;17.42;;;11.73;;
23470;SDS011;11908;50.806;4.424;2023-04-06T08:49:21;16.73;;;10.63;;
23470;SDS011;11908;50.806;4.424;2023-04-06T08:51:47;17.98;;;11.38;;
23470;SDS011;11908;50.806;4.424;2023-04-06T08:54:14;17.17;;;11.82;;
23470;SDS011;11908;50.806;4.424;2023-04-06T08:56:40;21.45;;;11.35;;
23470;SDS011;11908;50.806;4.424;2023-04-06T08:59:06;20.45;;;11.82;;
23470;SDS011;11908;50.806;4.424;2023-04-06T09:01:33;17.33;;;10.82;;
23470;SDS011;11908;50.806;4.424;2023-04-06T09:04:06;18.50;;;10.88;;
23470;SDS011;11908;50.806;4.424;2023-04-06T09:06:35;16.73;;;10.60;;
23470;SDS011;11908;50.806;4.424;2023-04-06T09:09:02;17.23;;;10.90;;
23470;SDS011;11908;50.806;4.424;2023-04-06T09:11:28;17.65;;;11.13;;
23470;SDS011;11908;50.806;4.424;2023-04-06T09:13:55;18.50;;;12.10;;
23470;SDS011;11908;50.806;4.424;2023-04-06T09:16:21;14.18;;;10.73;;
23470;SDS011;11908;50.806;4.424;2023-04-06T09:18:48;18.85;;;11.50;;
23470;SDS011;11908;50.806;4.424;2023-04-06T09:21:16;17.98;;;11.73;;
23470;SDS011;11908;50.806;4.424;2023-04-06T09:23:43;16.48;;;10.82;;
23470;SDS011;11908;50.806;4.424;2023-04-06T09:26:13;17.30;;;11.45;;
23470;SDS011;11908;50.806;4.424;2023-04-06T09:28:44;16.20;;;11.00;;
23470;SDS011;11908;50.806;4.424;2023-04-06T09:31:20;15.23;;;11.68;;
23470;SDS011;11908;50.806;4.424;2023-04-06T09:33:48;17.92;;;11.05;;
23470;SDS011;11908;50.806;4.424;2023-04-06T09:36:13;15.55;;;10.27;;
23470;SDS011;11908;50.806;4.424;2023-04-06T09:38:53;18.00;;;10.82;;
23470;SDS011;11908;50.806;4.424;2023-04-06T09:41:21;19.80;;;10.70;;
23470;SDS011;11908;50.806;4.424;2023-04-06T09:43:51;17.08;;;10.63;;
23470;SDS011;11908;50.806;4.424;2023-04-06T09:46:18;16.65;;;11.07;;
23470;SDS011;11908;50.806;4.424;2023-04-06T09:48:47;14.88;;;10.90;;
23470;SDS011;11908;50.806;4.424;2023-04-06T09:51:14;18.50;;;11.23;;
23470;SDS011;11908;50.806;4.424;2023-04-06T09:53:43;14.70;;;10.88;;
23470;SDS011;11908;50.806;4.424;2023-04-06T09:56:12;16.13;;;10.77;;
23470;SDS011;11908;50.806;4.424;2023-04-06T09:58:45;16.23;;;10.95;;
23470;SDS011;11908;50.806;4.424;2023-04-06T10:01:14;15.27;;;10.60;;
23470;SDS011;11908;50.806;4.424;2023-04-06T10:06:40;16.27;;;11.05;;
23470;SDS011;11908;50.806;4.424;2023-04-06T10:09:07;16.77;;;10.23;;
23470;SDS011;11908;50.806;4.424;2023-04-06T10:11:33;19.45;;;10.55;;
23470;SDS011;11908;50.806;4.424;2023-04-06T10:13:59;15.15;;;10.50;;
23470;SDS011;11908;50.806;4.424;2023-04-06T10:16:26;15.07;;;10.18;;
23470;SDS011;11908;50.806;4.424;2023-04-06T10:18:55;15.70;;;10.65;;
23470;SDS011;11908;50.806;4.424;2023-04-06T10:21:30;16.70;;;10.95;;
23470;SDS011;11908;50.806;4.424;2023-04-06T10:23:59;17.85;;;10.88;;
23470;SDS011;11908;50.806;4.424;2023-04-06T10:26:26;17.08;;;10.93;;
23470;SDS011;11908;50.806;4.424;2023-04-06T10:28:52;14.32;;;10.77;;
23470;SDS011;11908;50.806;4.424;2023-04-06T10:31:27;17.25;;;11.10;;
23470;SDS011;11908;50.806;4.424;2023-04-06T10:33:54;15.40;;;11.27;;
23470;SDS011;11908;50.806;4.424;2023-04-06T10:36:24;16.25;;;10.82;;
23470;SDS011;11908;50.806;4.424;2023-04-06T10:39:09;15.73;;;11.50;;
23470;SDS011;11908;50.806;4.424;2023-04-06T10:41:44;18.40;;;11.30;;
23470;SDS011;11908;50.806;4.424;2023-04-06T10:44:22;17.60;;;11.18;;
23470;SDS011;11908;50.806;4.424;2023-04-06T10:46:56;16.15;;;11.25;;
23470;SDS011;11908;50.806;4.424;2023-04-06T10:49:25;17.75;;;11.52;;
23470;SDS011;11908;50.806;4.424;2023-04-06T10:51:55;14.73;;;10.23;;
23470;SDS011;11908;50.806;4.424;2023-04-06T10:54:21;18.73;;;11.02;;
23470;SDS011;11908;50.806;4.424;2023-04-06T10:56:49;19.83;;;11.15;;
23470;SDS011;11908;50.806;4.424;2023-04-06T10:59:19;19.85;;;12.15;;
23470;SDS011;11908;50.806;4.424;2023-04-06T11:01:46;16.40;;;11.95;;
23470;SDS011;11908;50.806;4.424;2023-04-06T11:04:15;16.90;;;11.07;;
23470;SDS011;11908;50.806;4.424;2023-04-06T11:06:48;16.00;;;12.57;;
23470;SDS011;11908;50.806;4.424;2023-04-06T11:09:27;17.23;;;12.38;;
23470;SDS011;11908;50.806;4.424;2023-04-06T11:11:54;20.58;;;12.65;;
23470;SDS011;11908;50.806;4.424;2023-04-06T11:14:21;18.20;;;11.55;;
23470;SDS011;11908;50.806;4.424;2023-04-06T11:16:47;17.52;;;12.18;;
23470;SDS011;11908;50.806;4.424;2023-04-06T11:19:16;19.58;;;11.82;;
23470;SDS011;11908;50.806;4.424;2023-04-06T11:21:42;16.73;;;11.73;;
23470;SDS011;11908;50.806;4.424;2023-04-06T11:24:19;16.45;;;11.55;;
23470;SDS011;11908;50.806;4.424;2023-04-06T11:27:04;15.02;;;11.23;;
23470;SDS011;11908;50.806;4.424;2023-04-06T11:29:30;15.50;;;11.43;;
23470;SDS011;11908;50.806;4.424;2023-04-06T11:32:01;14.20;;;10.88;;
23470;SDS011;11908;50.806;4.424;2023-04-06T11:34:29;15.25;;;10.88;;
23470;SDS011;11908;50.806;4.424;2023-04-06T11:36:56;14.10;;;10.25;;
23470;SDS011;11908;50.806;4.424;2023-04-06T11:39:23;15.30;;;11.57;;
23470;SDS011;11908;50.806;4.424;2023-04-06T11:41:51;16.25;;;10.95;;
23470;SDS011;11908;50.806;4.424;2023-04-06T11:44:58;17.60;;;11.27;;
23470;SDS011;11908;50.806;4.424;2023-04-06T11:47:18;14.65;;;11.35;;
23470;SDS011;11908;50.806;4.424;2023-04-06T11:49:45;14.82;;;11.43;;
23470;SDS011;11908;50.806;4.424;2023-04-06T11:54:44;17.60;;;11.00;;
23470;SDS011;11908;50.806;4.424;2023-04-06T11:57:10;14.65;;;11.00;;
23470;SDS011;11908;50.806;4.424;2023-04-06T11:59:36;17.55;;;11.73;;
23470;SDS011;11908;50.806;4.424;2023-04-06T12:02:02;16.48;;;12.00;;
23470;SDS011;11908;50.806;4.424;2023-04-06T12:04:29;15.48;;;11.25;;
23470;SDS011;11908;50.806;4.424;2023-04-06T12:06:55;15.18;;;11.18;;
23470;SDS011;11908;50.806;4.424;2023-04-06T12:09:21;15.60;;;11.45;;
23470;SDS011;11908;50.806;4.424;2023-04-06T12:11:47;18.63;;;11.88;;
23470;SDS011;11908;50.806;4.424;2023-04-06T12:14:13;19.65;;;11.95;;
23470;SDS011;11908;50.806;4.424;2023-04-06T12:16:39;13.85;;;11.45;;
23470;SDS011;11908;50.806;4.424;2023-04-06T12:19:05;16.08;;;11.18;;
23470;SDS011;11908;50.806;4.424;2023-04-06T12:21:31;14.20;;;11.32;;
23470;SDS011;11908;50.806;4.424;2023-04-06T12:23:57;14.25;;;11.27;;
23470;SDS011;11908;50.806;4.424;2023-04-06T12:26:23;13.45;;;10.70;;
23470;SDS011;11908;50.806;4.424;2023-04-06T12:28:49;17.30;;;10.35;;
23470;SDS011;11908;50.806;4.424;2023-04-06T12:31:16;14.52;;;11.02;;
23470;SDS011;11908;50.806;4.424;2023-04-06T12:33:42;14.00;;;11.02;;
23470;SDS011;11908;50.806;4.424;2023-04-06T12:36:13;16.08;;;11.75;;
23470;SDS011;11908;50.806;4.424;2023-04-06T12:38:40;14.30;;;10.90;;
23470;SDS011;11908;50.806;4.424;2023-04-06T12:41:06;16.48;;;11.88;;
23470;SDS011;11908;50.806;4.424;2023-04-06T12:43:32;15.93;;;11.18;;
23470;SDS011;11908;50.806;4.424;2023-04-06T12:45:58;16.30;;;11.93;;
23470;SDS011;11908;50.806;4.424;2023-04-06T12:48:24;15.15;;;11.02;;
23470;SDS011;11908;50.806;4.424;2023-04-06T12:51:00;16.85;;;12.48;;
23470;SDS011;11908;50.806;4.424;2023-04-06T12:53:27;14.07;;;11.50;;
23470;SDS011;11908;50.806;4.424;2023-04-06T12:55:53;19.48;;;12.05;;
23470;SDS011;11908;50.806;4.424;2023-04-06T12:58:20;18.02;;;11.75;;
23470;SDS011;11908;50.806;4.424;2023-04-06T13:00:47;17.48;;;11.60;;
23470;SDS011;11908;50.806;4.424;2023-04-06T13:03:13;16.63;;;11.50;;
23470;SDS011;11908;50.806;4.424;2023-04-06T13:05:46;17.48;;;12.35;;
23470;SDS011;11908;50.806;4.424;2023-04-06T13:08:12;13.43;;;9.95;;
23470;SDS011;11908;50.806;4.424;2023-04-06T13:10:48;16.95;;;12.52;;
23470;SDS011;11908;50.806;4.424;2023-04-06T13:13:15;17.83;;;13.32;;
23470;SDS011;11908;50.806;4.424;2023-04-06T13:15:42;17.85;;;13.02;;
23470;SDS011;11908;50.806;4.424;2023-04-06T13:18:08;16.88;;;13.38;;
23470;SDS011;11908;50.806;4.424;2023-04-06T13:20:34;16.50;;;13.02;;
23470;SDS011;11908;50.806;4.424;2023-04-06T13:23:00;21.38;;;13.82;;
23470;SDS011;11908;50.806;4.424;2023-04-06T13:25:26;18.30;;;13.45;;
23470;SDS011;11908;50.806;4.424;2023-04-06T13:27:53;21.02;;;13.57;;
23470;SDS011;11908;50.806;4.424;2023-04-06T13:30:19;20.80;;;14.13;;
23470;SDS011;11908;50.806;4.424;2023-04-06T13:32:45;20.70;;;14.27;;
23470;SDS011;11908;50.806;4.424;2023-04-06T13:35:11;20.40;;;14.00;;
23470;SDS011;11908;50.806;4.424;2023-04-06T13:37:37;20.85;;;14.57;;
23470;SDS011;11908;50.806;4.424;2023-04-06T13:40:03;18.08;;;13.75;;
23470;SDS011;11908;50.806;4.424;2023-04-06T13:42:30;21.25;;;14.38;;
23470;SDS011;11908;50.806;4.424;2023-04-06T13:44:56;18.30;;;14.07;;
23470;SDS011;11908;50.806;4.424;2023-04-06T13:47:22;23.48;;;14.30;;
23470;SDS011;11908;50.806;4.424;2023-04-06T13:49:49;18.70;;;13.60;;
23470;SDS011;11908;50.806;4.424;2023-04-06T13:52:18;17.02;;;13.52;;
23470;SDS011;11908;50.806;4.424;2023-04-06T13:54:45;21.02;;;13.68;;
23470;SDS011;11908;50.806;4.424;2023-04-06T13:57:11;19.17;;;14.60;;
23470;SDS011;11908;50.806;4.424;2023-04-06T13:59:37;19.88;;;14.00;;
23470;SDS011;11908;50.806;4.424;2023-04-06T14:02:04;18.77;;;13.50;;
23470;SDS011;11908;50.806;4.424;2023-04-06T14:04:31;16.65;;;13.48;;
23470;SDS011;11908;50.806;4.424;2023-04-06T14:06:58;17.77;;;13.43;;
23470;SDS011;11908;50.806;4.424;2023-04-06T14:09:25;19.95;;;14.32;;
23470;SDS011;11908;50.806;4.424;2023-04-06T14:11:51;20.05;;;14.02;;
23470;SDS011;11908;50.806;4.424;2023-04-06T14:14:17;19.50;;;14.02;;
23470;SDS011;11908;50.806;4.424;2023-04-06T14:16:43;19.58;;;14.52;;
23470;SDS011;11908;50.806;4.424;2023-04-06T14:19:09;18.52;;;14.43;;
23470;SDS011;11908;50.806;4.424;2023-04-06T14:21:39;17.40;;;13.73;;
23470;SDS011;11908;50.806;4.424;2023-04-06T14:24:08;16.45;;;13.07;;